createdAt,value
2019-03-29T00:02:06.678Z,9.63
2019-03-29T00:04:37.499Z,9.71
2019-03-29T00:07:08.535Z,9.70
2019-03-29T00:09:39.220Z,9.66
2019-03-29T00:12:09.991Z,9.65
2019-03-29T00:14:41.979Z,9.49
2019-03-29T00:17:12.766Z,9.60
2019-03-29T00:19:43.724Z,9.56
2019-03-29T00:22:14.672Z,9.57
2019-03-29T00:24:45.334Z,9.57
2019-03-29T00:27:16.825Z,9.58
2019-03-29T00:29:47.714Z,9.53
2019-03-29T00:32:18.405Z,9.52
2019-03-29T00:34:49.523Z,9.51
2019-03-29T00:37:20.268Z,9.55
2019-03-29T00:39:51.429Z,9.53
2019-03-29T00:42:22.168Z,9.53
2019-03-29T00:44:52.947Z,9.49
2019-03-29T00:47:24.986Z,9.47
2019-03-29T00:49:55.711Z,9.45
2019-03-29T00:52:27.017Z,9.42
2019-03-29T00:54:57.704Z,9.47
2019-03-29T00:57:28.620Z,9.54
2019-03-29T00:59:59.945Z,9.47
2019-03-29T01:02:31.094Z,9.58
2019-03-29T01:05:02.040Z,9.57
2019-03-29T01:07:33.258Z,9.51
2019-03-29T01:10:07.414Z,9.61
2019-03-29T01:12:38.154Z,9.56
2019-03-29T01:15:11.033Z,9.57
2019-03-29T01:17:42.592Z,9.57
2019-03-29T01:20:13.986Z,9.53
2019-03-29T01:22:45.177Z,9.48
2019-03-29T01:25:16.364Z,9.46
2019-03-29T01:27:47.044Z,9.44
2019-03-29T01:30:18.197Z,9.48
2019-03-29T01:32:48.863Z,9.48
2019-03-29T01:35:19.906Z,9.51
2019-03-29T01:37:51.049Z,9.48
2019-03-29T01:40:22.188Z,9.46
2019-03-29T01:42:53.316Z,9.47
2019-03-29T01:45:25.020Z,9.57
2019-03-29T01:47:56.121Z,9.54
2019-03-29T01:50:27.208Z,9.48
2019-03-29T01:52:58.045Z,9.53
2019-03-29T01:55:29.275Z,9.50
2019-03-29T01:58:00.089Z,9.61
2019-03-29T02:00:34.459Z,9.52
2019-03-29T02:03:06.094Z,9.44
2019-03-29T02:05:37.160Z,9.50
2019-03-29T02:08:07.822Z,9.37
2019-03-29T02:10:38.781Z,9.36
2019-03-29T02:13:09.509Z,9.36
2019-03-29T02:15:40.493Z,9.40
2019-03-29T02:18:12.052Z,9.34
2019-03-29T02:20:42.802Z,9.35
2019-03-29T02:23:13.845Z,9.34
2019-03-29T02:25:44.891Z,9.28
2019-03-29T02:28:15.627Z,9.35
2019-03-29T02:30:46.488Z,9.38
2019-03-29T02:33:17.506Z,9.30
2019-03-29T02:35:48.729Z,9.28
2019-03-29T02:38:19.674Z,9.27
2019-03-29T02:40:51.021Z,9.27
2019-03-29T02:43:22.492Z,9.23
2019-03-29T02:45:53.380Z,9.23
2019-03-29T02:48:24.100Z,9.22
2019-03-29T02:50:54.992Z,9.23
2019-03-29T02:53:25.945Z,9.18
2019-03-29T02:55:57.133Z,9.19
2019-03-29T02:58:27.917Z,9.19
2019-03-29T03:00:59.077Z,9.20
2019-03-29T03:03:30.332Z,9.17
2019-03-29T03:06:02.019Z,9.15
2019-03-29T03:08:33.718Z,9.14
2019-03-29T03:11:04.765Z,9.13
2019-03-29T03:13:35.603Z,9.13
2019-03-29T03:16:06.293Z,9.10
2019-03-29T03:18:37.162Z,9.11
2019-03-29T03:21:07.842Z,9.11
2019-03-29T03:23:38.971Z,9.09
2019-03-29T03:26:09.981Z,9.10
2019-03-29T03:28:40.875Z,9.09
2019-03-29T03:31:11.628Z,9.06
2019-03-29T03:33:42.327Z,8.99
2019-03-29T03:36:12.984Z,8.97
2019-03-29T03:38:43.669Z,8.96
2019-03-29T03:41:14.486Z,8.97
2019-03-29T03:43:45.530Z,8.98
2019-03-29T03:46:16.200Z,8.96
2019-03-29T03:48:46.850Z,8.86
2019-03-29T03:51:18.426Z,8.92
2019-03-29T03:53:49.294Z,8.93
2019-03-29T03:56:21.496Z,8.93
2019-03-29T03:58:53.309Z,8.94
2019-03-29T04:01:24.973Z,8.95
2019-03-29T04:03:56.027Z,8.91
2019-03-29T04:06:27.186Z,8.88
2019-03-29T04:08:57.902Z,8.89
2019-03-29T04:11:28.805Z,8.92
2019-03-29T04:13:59.830Z,8.95
2019-03-29T04:16:30.561Z,8.99
2019-03-29T04:19:01.480Z,9.02
2019-03-29T04:21:32.471Z,8.99
2019-03-29T04:24:03.299Z,8.96
2019-03-29T04:26:34.547Z,8.93
2019-03-29T04:29:05.577Z,8.92
2019-03-29T04:31:36.296Z,8.90
2019-03-29T04:34:07.323Z,8.90
2019-03-29T04:36:38.434Z,8.90
2019-03-29T04:39:10.287Z,8.94
2019-03-29T04:41:40.926Z,9.06
2019-03-29T04:44:12.044Z,9.27
2019-03-29T04:46:43.099Z,9.30
2019-03-29T04:49:14.489Z,9.31
2019-03-29T04:51:45.219Z,9.28
2019-03-29T04:54:16.096Z,9.19
2019-03-29T04:56:47.147Z,9.15
2019-03-29T04:59:18.236Z,9.12
2019-03-29T05:01:49.022Z,9.10
2019-03-29T05:04:20.219Z,9.04
2019-03-29T05:06:51.036Z,9.01
2019-03-29T05:09:22.327Z,8.96
2019-03-29T05:11:53.038Z,8.88
2019-03-29T05:14:23.703Z,8.92
2019-03-29T05:16:54.857Z,9.03
2019-03-29T05:19:26.022Z,9.18
2019-03-29T05:21:56.688Z,9.11
2019-03-29T05:24:28.034Z,8.99
2019-03-29T05:26:59.461Z,8.95
2019-03-29T05:29:30.296Z,8.91
2019-03-29T05:32:01.433Z,8.90
2019-03-29T05:34:32.559Z,8.96
2019-03-29T05:37:03.763Z,8.95
2019-03-29T05:39:34.741Z,9.05
2019-03-29T05:42:05.406Z,9.17
2019-03-29T05:44:36.751Z,9.16
2019-03-29T05:47:07.465Z,9.16
2019-03-29T05:49:38.921Z,9.16
2019-03-29T05:52:10.013Z,9.27
2019-03-29T05:54:40.761Z,9.18
2019-03-29T05:57:11.725Z,9.19
2019-03-29T05:59:42.710Z,9.13
2019-03-29T06:02:13.444Z,9.33
2019-03-29T06:04:44.109Z,9.27
2019-03-29T06:07:14.869Z,9.23
2019-03-29T06:09:47.303Z,9.37
2019-03-29T06:12:18.361Z,9.50
2019-03-29T06:14:49.354Z,9.70
2019-03-29T06:17:20.351Z,9.71
2019-03-29T06:19:51.069Z,9.74
2019-03-29T06:22:21.952Z,9.77
2019-03-29T06:24:52.836Z,9.86
2019-03-29T06:27:26.651Z,9.95
2019-03-29T06:29:57.548Z,10.18
2019-03-29T06:32:28.466Z,10.23
2019-03-29T06:34:59.179Z,10.13
2019-03-29T06:37:32.262Z,9.98
2019-03-29T06:40:04.246Z,9.89
2019-03-29T06:42:35.092Z,10.05
2019-03-29T06:45:08.039Z,10.15
2019-03-29T06:47:39.144Z,10.39
2019-03-29T06:50:13.961Z,10.43
2019-03-29T06:52:43.469Z,10.66
2019-03-29T06:55:14.493Z,10.67
2019-03-29T06:57:45.161Z,10.68
2019-03-29T07:00:16.522Z,10.86
2019-03-29T07:02:47.439Z,10.83
2019-03-29T07:05:18.553Z,10.98
2019-03-29T07:07:49.319Z,11.33
2019-03-29T07:10:20.305Z,11.22
2019-03-29T07:12:51.006Z,11.24
2019-03-29T07:15:22.365Z,11.31
2019-03-29T07:17:53.076Z,11.40
2019-03-29T07:20:24.003Z,11.30
2019-03-29T07:22:55.010Z,11.43
2019-03-29T07:25:25.709Z,11.51
2019-03-29T07:27:56.383Z,11.52
2019-03-29T07:30:27.520Z,11.72
2019-03-29T07:32:58.759Z,11.76
2019-03-29T07:35:29.661Z,11.99
2019-03-29T07:38:00.658Z,12.01
2019-03-29T07:40:31.758Z,12.12
2019-03-29T07:43:02.521Z,12.30
2019-03-29T07:45:33.230Z,12.00
2019-03-29T07:48:04.370Z,11.58
2019-03-29T07:50:35.322Z,11.75
2019-03-29T07:53:06.562Z,11.89
2019-03-29T07:55:37.710Z,12.03
2019-03-29T07:58:08.581Z,12.26
2019-03-29T08:00:39.718Z,12.62
2019-03-29T08:03:10.747Z,12.52
2019-03-29T08:05:41.433Z,12.79
2019-03-29T08:08:23.281Z,13.14
2019-03-29T08:10:45.087Z,13.39
2019-03-29T08:13:16.200Z,13.67
2019-03-29T08:15:47.345Z,13.56
2019-03-29T08:18:18.496Z,13.28
2019-03-29T08:20:49.311Z,13.53
2019-03-29T08:23:21.203Z,13.42
2019-03-29T08:25:52.370Z,13.63
2019-03-29T08:28:24.345Z,13.63
2019-03-29T08:30:55.360Z,13.65
2019-03-29T08:33:26.201Z,13.72
2019-03-29T08:35:57.210Z,13.92
2019-03-29T08:38:28.001Z,13.83
2019-03-29T08:40:58.726Z,13.61
2019-03-29T08:43:29.680Z,13.73
2019-03-29T08:46:01.943Z,13.71
2019-03-29T08:48:32.781Z,13.78
2019-03-29T08:51:03.543Z,13.63
2019-03-29T08:53:34.694Z,13.83
2019-03-29T08:56:05.708Z,13.87
2019-03-29T08:58:36.724Z,13.88
2019-03-29T09:01:07.678Z,13.72
2019-03-29T09:03:38.730Z,13.78
2019-03-29T09:06:09.611Z,13.95
2019-03-29T09:08:40.676Z,13.95
2019-03-29T09:11:11.731Z,13.84
2019-03-29T09:13:42.684Z,13.73
2019-03-29T09:16:13.451Z,13.81
2019-03-29T09:18:45.589Z,13.68
2019-03-29T09:21:16.531Z,13.74
2019-03-29T09:23:48.086Z,13.67
2019-03-29T09:26:20.073Z,13.78
2019-03-29T09:28:50.751Z,13.79
2019-03-29T09:31:21.526Z,13.95
2019-03-29T09:33:52.237Z,13.80
2019-03-29T09:36:23.306Z,13.90
2019-03-29T09:38:54.858Z,14.05
2019-03-29T09:41:25.716Z,14.14
2019-03-29T09:43:57.436Z,14.14
2019-03-29T09:46:28.604Z,13.97
2019-03-29T09:49:03.529Z,14.10
2019-03-29T09:51:36.095Z,13.78
2019-03-29T09:54:21.877Z,14.22
2019-03-29T09:56:52.815Z,14.52
2019-03-29T09:59:23.751Z,14.59
2019-03-29T10:01:54.494Z,15.04
2019-03-29T10:04:25.545Z,15.65
2019-03-29T10:06:56.255Z,15.58
2019-03-29T10:09:27.451Z,16.03
2019-03-29T10:11:58.615Z,16.66
2019-03-29T10:14:29.382Z,16.89
2019-03-29T10:17:00.297Z,16.83
2019-03-29T10:19:31.267Z,16.59
2019-03-29T10:22:02.418Z,16.17
2019-03-29T10:24:33.193Z,15.75
2019-03-29T10:27:04.234Z,14.98
2019-03-29T10:29:35.221Z,14.43
2019-03-29T10:32:09.249Z,14.60
2019-03-29T10:34:38.432Z,14.62
2019-03-29T10:37:09.558Z,14.90
2019-03-29T10:39:40.230Z,14.90
2019-03-29T10:42:11.136Z,14.53
2019-03-29T10:44:41.882Z,14.42
2019-03-29T10:47:12.898Z,14.41
2019-03-29T10:49:43.930Z,14.48
2019-03-29T10:52:15.104Z,14.87
2019-03-29T10:54:45.843Z,15.05
2019-03-29T10:57:16.530Z,14.97
2019-03-29T10:59:47.476Z,14.95
2019-03-29T11:02:18.168Z,14.96
2019-03-29T11:04:48.874Z,14.98
2019-03-29T11:07:19.934Z,14.76
2019-03-29T11:09:50.623Z,14.88
2019-03-29T11:12:21.564Z,15.18
2019-03-29T11:14:52.664Z,15.27
2019-03-29T11:17:23.327Z,15.59
2019-03-29T11:19:54.448Z,16.02
2019-03-29T11:22:26.265Z,17.56
2019-03-29T11:24:57.019Z,17.54
2019-03-29T11:27:28.007Z,17.69
2019-03-29T11:29:59.055Z,18.31
2019-03-29T11:32:30.094Z,17.73
2019-03-29T11:35:01.133Z,17.57
2019-03-29T11:37:32.830Z,16.68
2019-03-29T11:40:06.011Z,16.13
2019-03-29T11:42:36.884Z,15.87
2019-03-29T11:45:08.619Z,16.03
2019-03-29T11:47:39.709Z,16.15
2019-03-29T11:50:10.699Z,16.57
2019-03-29T11:52:41.541Z,15.44
2019-03-29T11:55:12.240Z,15.58
2019-03-29T11:57:43.809Z,15.72
2019-03-29T12:00:15.253Z,14.85
2019-03-29T12:02:46.002Z,14.52
2019-03-29T12:05:17.606Z,14.80
2019-03-29T12:07:48.589Z,15.05
2019-03-29T12:10:19.447Z,15.26
2019-03-29T12:12:50.622Z,15.47
2019-03-29T12:15:22.282Z,15.64
2019-03-29T12:17:54.616Z,15.66
2019-03-29T12:20:26.972Z,15.93
2019-03-29T12:22:57.655Z,16.14
2019-03-29T12:25:28.332Z,16.00
2019-03-29T12:28:00.485Z,15.92
2019-03-29T12:30:32.531Z,15.81
2019-03-29T12:33:05.020Z,15.78
2019-03-29T12:35:35.680Z,15.64
2019-03-29T12:38:06.581Z,15.22
2019-03-29T12:40:37.831Z,15.30
2019-03-29T12:43:08.555Z,15.60
2019-03-29T12:45:39.819Z,15.56
2019-03-29T12:48:10.484Z,15.55
2019-03-29T12:50:41.943Z,15.38
2019-03-29T12:53:12.951Z,15.25
2019-03-29T12:55:43.971Z,15.51
2019-03-29T12:58:14.787Z,15.96
2019-03-29T13:00:47.493Z,15.98
2019-03-29T13:03:18.522Z,15.89
2019-03-29T13:05:49.909Z,15.86
2019-03-29T13:08:21.020Z,15.82
2019-03-29T13:10:52.257Z,15.89
2019-03-29T13:13:23.136Z,15.92
2019-03-29T13:15:54.152Z,15.96
2019-03-29T13:18:25.785Z,15.39
2019-03-29T13:20:56.868Z,15.54
2019-03-29T13:23:27.889Z,15.70
2019-03-29T13:25:58.561Z,15.71
2019-03-29T13:28:29.664Z,15.89
2019-03-29T13:31:01.536Z,15.79
2019-03-29T13:33:32.562Z,15.54
2019-03-29T13:36:04.567Z,15.29
2019-03-29T13:38:35.717Z,15.49
2019-03-29T13:41:07.258Z,15.56
2019-03-29T13:43:38.501Z,15.86
2019-03-29T13:46:09.909Z,15.88
2019-03-29T13:48:41.283Z,15.40
2019-03-29T13:51:11.956Z,15.73
2019-03-29T13:53:44.259Z,15.57
2019-03-29T13:56:15.302Z,15.42
2019-03-29T13:58:46.446Z,15.47
2019-03-29T14:01:17.164Z,15.60
2019-03-29T14:03:47.945Z,15.66
2019-03-29T14:06:18.786Z,15.77
2019-03-29T14:08:49.941Z,15.59
2019-03-29T14:11:21.404Z,15.23
2019-03-29T14:13:52.154Z,14.98
2019-03-29T14:16:23.121Z,15.09
2019-03-29T14:18:53.920Z,15.01
2019-03-29T14:21:24.971Z,15.20
2019-03-29T14:23:55.943Z,15.27
2019-03-29T14:26:26.649Z,15.69
2019-03-29T14:28:57.683Z,15.77
2019-03-29T14:31:28.734Z,15.83
2019-03-29T14:34:04.989Z,15.90
2019-03-29T14:36:35.688Z,16.16
2019-03-29T14:39:08.614Z,16.30
2019-03-29T14:41:39.414Z,16.27
2019-03-29T14:44:10.090Z,16.37
2019-03-29T14:46:41.370Z,16.23
2019-03-29T14:49:12.317Z,16.04
2019-03-29T14:51:44.048Z,15.58
2019-03-29T14:54:14.743Z,15.23
2019-03-29T14:56:45.934Z,15.13
2019-03-29T14:59:16.626Z,15.11
2019-03-29T15:01:47.329Z,14.99
2019-03-29T15:04:18.051Z,15.17
2019-03-29T15:06:49.131Z,15.51
2019-03-29T15:09:21.549Z,15.74
2019-03-29T15:11:52.945Z,15.75
2019-03-29T15:14:23.894Z,15.83
2019-03-29T15:16:54.687Z,15.83
2019-03-29T15:19:25.332Z,15.81
2019-03-29T15:21:56.031Z,15.93
2019-03-29T15:24:27.045Z,16.09
2019-03-29T15:26:57.698Z,15.99
2019-03-29T15:29:28.742Z,15.99
2019-03-29T15:31:59.397Z,16.14
2019-03-29T15:34:30.093Z,16.09
2019-03-29T15:37:01.206Z,16.00
2019-03-29T15:39:32.220Z,16.07
2019-03-29T15:42:03.302Z,16.12
2019-03-29T15:44:35.532Z,16.31
2019-03-29T15:47:06.274Z,16.02
2019-03-29T15:49:37.204Z,16.20
2019-03-29T15:52:10.054Z,16.25
2019-03-29T15:54:42.335Z,16.34
2019-03-29T15:57:13.288Z,16.23
2019-03-29T15:59:44.207Z,16.05
2019-03-29T16:02:14.898Z,15.96
2019-03-29T16:04:45.819Z,15.74
2019-03-29T16:07:16.725Z,15.80
2019-03-29T16:09:47.800Z,15.83
2019-03-29T16:12:18.520Z,15.74
2019-03-29T16:14:49.188Z,15.70
2019-03-29T16:17:20.120Z,15.79
2019-03-29T16:19:51.134Z,15.80
2019-03-29T16:22:21.811Z,15.73
2019-03-29T16:24:52.561Z,15.70
2019-03-29T16:27:25.106Z,15.57
2019-03-29T16:29:56.175Z,15.02
2019-03-29T16:32:26.845Z,15.07
2019-03-29T16:34:57.796Z,15.15
2019-03-29T16:37:28.768Z,15.15
2019-03-29T16:39:59.462Z,15.17
2019-03-29T16:42:30.137Z,15.19
2019-03-29T16:45:00.909Z,15.16
2019-03-29T16:47:31.634Z,15.16
2019-03-29T16:50:02.540Z,15.12
2019-03-29T16:52:34.446Z,15.09
2019-03-29T16:55:13.843Z,15.03
2019-03-29T16:57:40.276Z,14.96
2019-03-29T17:00:12.924Z,14.86
2019-03-29T17:02:44.020Z,14.69
2019-03-29T17:05:15.178Z,14.66
2019-03-29T17:07:45.858Z,14.52
2019-03-29T17:10:17.155Z,14.38
2019-03-29T17:12:51.979Z,14.26
2019-03-29T17:15:21.188Z,14.21
2019-03-29T17:17:52.206Z,14.22
2019-03-29T17:20:23.109Z,14.23
2019-03-29T17:22:53.819Z,14.14
2019-03-29T17:25:24.499Z,14.03
2019-03-29T17:27:55.262Z,14.00
2019-03-29T17:30:42.705Z,13.90
2019-03-29T17:33:13.410Z,13.78
2019-03-29T17:35:44.428Z,13.68
2019-03-29T17:38:15.387Z,13.56
2019-03-29T17:40:46.328Z,13.45
2019-03-29T17:43:18.717Z,13.31
2019-03-29T17:45:49.588Z,13.33
2019-03-29T17:48:20.267Z,13.30
2019-03-29T17:50:50.991Z,13.30
2019-03-29T17:53:21.964Z,13.21
2019-03-29T17:55:52.912Z,13.13
2019-03-29T17:58:24.099Z,12.93
2019-03-29T18:00:55.279Z,12.96
2019-03-29T18:03:26.301Z,12.80
2019-03-29T18:05:57.185Z,12.71
2019-03-29T18:08:28.265Z,12.60
2019-03-29T18:10:59.450Z,12.55
2019-03-29T18:13:30.277Z,12.43
2019-03-29T18:16:01.474Z,12.41
2019-03-29T18:18:32.157Z,12.45
2019-03-29T18:21:03.034Z,12.38
2019-03-29T18:23:34.007Z,12.30
2019-03-29T18:26:05.117Z,12.26
2019-03-29T18:28:38.045Z,12.22
2019-03-29T18:31:08.903Z,12.12
2019-03-29T18:33:39.971Z,12.02
2019-03-29T18:36:11.053Z,11.96
2019-03-29T18:38:44.858Z,11.90
2019-03-29T18:41:15.582Z,11.90
2019-03-29T18:43:46.253Z,11.87
2019-03-29T18:46:17.404Z,12.06
2019-03-29T18:48:48.440Z,11.80
2019-03-29T18:51:19.389Z,11.67
2019-03-29T18:53:50.658Z,11.58
2019-03-29T18:56:21.654Z,11.53
2019-03-29T18:58:52.944Z,11.46
2019-03-29T19:01:23.626Z,11.41
2019-03-29T19:03:54.358Z,11.32
2019-03-29T19:06:25.281Z,11.27
2019-03-29T19:08:56.228Z,11.24
2019-03-29T19:11:26.990Z,11.26
2019-03-29T19:13:58.039Z,11.19
2019-03-29T19:16:28.803Z,11.10
2019-03-29T19:19:09.839Z,11.02
2019-03-29T19:21:32.410Z,10.97
2019-03-29T19:24:03.359Z,10.95
2019-03-29T19:26:34.202Z,10.94
2019-03-29T19:29:05.129Z,10.90
2019-03-29T19:31:36.165Z,10.83
2019-03-29T19:34:07.098Z,10.81
2019-03-29T19:36:38.765Z,10.73
2019-03-29T19:39:09.659Z,10.63
2019-03-29T19:41:40.604Z,10.60
2019-03-29T19:44:13.858Z,10.54
2019-03-29T19:46:44.014Z,10.52
2019-03-29T19:49:15.696Z,10.47
2019-03-29T19:51:46.664Z,10.40
2019-03-29T19:54:17.694Z,10.32
2019-03-29T19:56:48.633Z,10.26
2019-03-29T19:59:21.213Z,10.27
2019-03-29T20:01:51.964Z,10.28
2019-03-29T20:04:22.899Z,10.03
2019-03-29T20:06:53.856Z,10.13
2019-03-29T20:09:24.780Z,10.12
2019-03-29T20:11:55.611Z,10.08
2019-03-29T20:14:26.308Z,10.02
2019-03-29T20:16:56.996Z,9.99
2019-03-29T20:19:27.661Z,9.92
2019-03-29T20:21:58.406Z,9.84
2019-03-29T20:24:29.568Z,9.81
2019-03-29T20:27:00.586Z,9.80
2019-03-29T20:29:31.539Z,9.63
2019-03-29T20:32:02.224Z,9.75
2019-03-29T20:34:33.195Z,9.72
2019-03-29T20:37:03.862Z,9.68
2019-03-29T20:39:34.853Z,9.63
2019-03-29T20:42:05.523Z,9.59
2019-03-29T20:44:36.210Z,9.53
2019-03-29T20:47:07.183Z,9.45
2019-03-29T20:49:37.842Z,9.39
2019-03-29T20:52:08.695Z,9.32
2019-03-29T20:54:39.709Z,9.32
2019-03-29T20:57:10.810Z,9.29
2019-03-29T20:59:41.803Z,9.31
2019-03-29T21:02:12.781Z,9.33
2019-03-29T21:04:44.359Z,9.24
2019-03-29T21:07:15.058Z,9.20
2019-03-29T21:09:46.027Z,9.23
2019-03-29T21:12:17.078Z,9.24
2019-03-29T21:14:47.758Z,9.21
2019-03-29T21:17:18.675Z,9.19
2019-03-29T21:19:49.409Z,9.22
2019-03-29T21:22:21.169Z,9.18
2019-03-29T21:24:52.109Z,9.11
2019-03-29T21:27:23.159Z,9.09
2019-03-29T21:29:54.089Z,9.04
2019-03-29T21:32:25.027Z,8.95
2019-03-29T21:34:56.202Z,8.88
2019-03-29T21:37:27.146Z,8.75
2019-03-29T21:39:58.081Z,8.73
2019-03-29T21:42:29.036Z,8.75
2019-03-29T21:45:00.037Z,8.74
2019-03-29T21:47:30.722Z,8.69
2019-03-29T21:50:01.706Z,8.60
2019-03-29T21:52:33.259Z,8.58
2019-03-29T21:55:04.876Z,8.52
2019-03-29T21:57:35.554Z,8.45
2019-03-29T22:00:15.382Z,8.31
2019-03-29T22:02:46.210Z,8.24
2019-03-29T22:05:16.888Z,8.22
2019-03-29T22:07:47.569Z,8.16
2019-03-29T22:10:18.867Z,8.12
2019-03-29T22:12:50.425Z,8.17
2019-03-29T22:15:21.234Z,8.09
2019-03-29T22:17:52.228Z,7.96
2019-03-29T22:20:24.806Z,7.92
2019-03-29T22:22:56.077Z,7.89
2019-03-29T22:25:26.799Z,7.77
2019-03-29T22:27:57.763Z,7.69
2019-03-29T22:30:29.857Z,7.64
2019-03-29T22:33:03.940Z,7.69
2019-03-29T22:35:34.472Z,7.72
2019-03-29T22:38:05.183Z,7.69
2019-03-29T22:40:36.449Z,7.62
2019-03-29T22:43:07.562Z,7.56
2019-03-29T22:45:39.069Z,7.63
2019-03-29T22:48:09.918Z,7.56
2019-03-29T22:50:40.583Z,7.42
2019-03-29T22:53:12.955Z,7.41
2019-03-29T22:55:43.729Z,7.35
2019-03-29T22:58:15.100Z,7.35
2019-03-29T23:00:51.731Z,7.31
2019-03-29T23:03:23.002Z,7.25
2019-03-29T23:05:54.310Z,7.35
2019-03-29T23:08:25.005Z,7.25
2019-03-29T23:10:56.350Z,7.22
2019-03-29T23:13:28.648Z,7.19
2019-03-29T23:16:00.406Z,7.19
2019-03-29T23:18:31.076Z,7.08
2019-03-29T23:21:01.732Z,7.03
2019-03-29T23:23:32.692Z,6.96
2019-03-29T23:26:04.670Z,6.88
2019-03-29T23:28:35.403Z,6.84
2019-03-29T23:31:06.682Z,6.87
2019-03-29T23:33:37.753Z,6.83
2019-03-29T23:36:08.868Z,6.85
2019-03-29T23:38:39.527Z,6.83
2019-03-29T23:41:10.372Z,6.81
2019-03-29T23:43:41.497Z,6.77
2019-03-29T23:46:13.035Z,6.76
2019-03-29T23:48:43.960Z,6.73
2019-03-29T23:51:15.107Z,6.68
2019-03-29T23:53:45.770Z,6.72
2019-03-29T23:56:17.829Z,6.58
2019-03-29T23:58:48.640Z,6.45
